sensor_id;sensor_type;location;lat;lon;timestamp;temperature;humidity
27306;DHT22;14792;50.886;6.468;2024-02-26T00:01:32;6.40;99.90
27306;DHT22;14792;50.886;6.468;2024-02-26T00:04:36;6.40;99.90
27306;DHT22;14792;50.886;6.468;2024-02-26T00:07:38;6.30;99.90
27306;DHT22;14792;50.886;6.468;2024-02-26T00:10:40;6.30;99.90
27306;DHT22;14792;50.886;6.468;2024-02-26T00:13:41;6.30;99.90
27306;DHT22;14792;50.886;6.468;2024-02-26T00:16:43;6.30;99.90
27306;DHT22;14792;50.886;6.468;2024-02-26T00:19:44;6.30;99.90
27306;DHT22;14792;50.886;6.468;2024-02-26T00:22:46;6.20;99.90
27306;DHT22;14792;50.886;6.468;2024-02-26T00:25:48;6.30;99.90
27306;DHT22;14792;50.886;6.468;2024-02-26T00:28:49;6.30;99.90
27306;DHT22;14792;50.886;6.468;2024-02-26T00:31:51;6.30;99.90
27306;DHT22;14792;50.886;6.468;2024-02-26T00:34:52;6.30;99.90
27306;DHT22;14792;50.886;6.468;2024-02-26T00:37:54;6.30;99.90
27306;DHT22;14792;50.886;6.468;2024-02-26T00:40:55;6.20;99.90
27306;DHT22;14792;50.886;6.468;2024-02-26T00:43:57;6.20;99.90
27306;DHT22;14792;50.886;6.468;2024-02-26T00:46:59;6.20;99.90
27306;DHT22;14792;50.886;6.468;2024-02-26T00:50:00;6.20;99.90
27306;DHT22;14792;50.886;6.468;2024-02-26T00:53:02;6.20;99.90
27306;DHT22;14792;50.886;6.468;2024-02-26T00:56:03;6.20;99.90
27306;DHT22;14792;50.886;6.468;2024-02-26T00:59:05;6.20;99.90
27306;DHT22;14792;50.886;6.468;2024-02-26T01:02:07;6.20;99.90
27306;DHT22;14792;50.886;6.468;2024-02-26T01:05:08;6.20;99.90
27306;DHT22;14792;50.886;6.468;2024-02-26T01:08:13;6.10;99.90
27306;DHT22;14792;50.886;6.468;2024-02-26T01:11:15;6.10;99.90
27306;DHT22;14792;50.886;6.468;2024-02-26T01:14:16;6.10;99.90
27306;DHT22;14792;50.886;6.468;2024-02-26T01:17:18;6.10;99.90
27306;DHT22;14792;50.886;6.468;2024-02-26T01:20:19;6.10;99.90
27306;DHT22;14792;50.886;6.468;2024-02-26T01:23:21;6.00;99.90
27306;DHT22;14792;50.886;6.468;2024-02-26T01:26:22;6.00;99.90
27306;DHT22;14792;50.886;6.468;2024-02-26T01:29:24;6.00;99.90
27306;DHT22;14792;50.886;6.468;2024-02-26T01:32:25;6.00;99.90
27306;DHT22;14792;50.886;6.468;2024-02-26T01:35:27;6.00;99.90
27306;DHT22;14792;50.886;6.468;2024-02-26T01:38:29;6.00;99.90
27306;DHT22;14792;50.886;6.468;2024-02-26T01:41:30;6.00;99.90
27306;DHT22;14792;50.886;6.468;2024-02-26T01:44:32;6.00;99.90
27306;DHT22;14792;50.886;6.468;2024-02-26T01:47:33;6.00;99.90
27306;DHT22;14792;50.886;6.468;2024-02-26T01:50:35;6.00;99.90
27306;DHT22;14792;50.886;6.468;2024-02-26T01:53:37;5.90;99.90
27306;DHT22;14792;50.886;6.468;2024-02-26T01:56:38;5.90;99.90
27306;DHT22;14792;50.886;6.468;2024-02-26T01:59:40;5.90;99.90
27306;DHT22;14792;50.886;6.468;2024-02-26T02:02:41;5.90;99.90
27306;DHT22;14792;50.886;6.468;2024-02-26T02:05:43;5.90;99.90
27306;DHT22;14792;50.886;6.468;2024-02-26T02:08:45;5.90;99.90
27306;DHT22;14792;50.886;6.468;2024-02-26T02:11:46;5.90;99.90
27306;DHT22;14792;50.886;6.468;2024-02-26T02:14:48;5.90;99.90
27306;DHT22;14792;50.886;6.468;2024-02-26T02:17:49;5.90;99.90
27306;DHT22;14792;50.886;6.468;2024-02-26T02:20:51;5.90;99.90
27306;DHT22;14792;50.886;6.468;2024-02-26T02:23:52;5.90;99.90
27306;DHT22;14792;50.886;6.468;2024-02-26T02:26:54;5.90;99.90
27306;DHT22;14792;50.886;6.468;2024-02-26T02:29:56;5.90;99.90
27306;DHT22;14792;50.886;6.468;2024-02-26T02:32:57;5.90;99.90
27306;DHT22;14792;50.886;6.468;2024-02-26T02:35:59;5.90;99.90
27306;DHT22;14792;50.886;6.468;2024-02-26T02:39:00;5.90;99.90
27306;DHT22;14792;50.886;6.468;2024-02-26T02:42:02;5.90;99.90
27306;DHT22;14792;50.886;6.468;2024-02-26T02:45:04;5.90;99.90
27306;DHT22;14792;50.886;6.468;2024-02-26T02:48:05;5.90;99.90
27306;DHT22;14792;50.886;6.468;2024-02-26T02:51:07;5.90;99.90
27306;DHT22;14792;50.886;6.468;2024-02-26T02:54:08;5.90;99.90
27306;DHT22;14792;50.886;6.468;2024-02-26T02:57:10;5.90;99.90
27306;DHT22;14792;50.886;6.468;2024-02-26T03:00:12;5.90;99.90
27306;DHT22;14792;50.886;6.468;2024-02-26T03:03:14;5.90;99.90
27306;DHT22;14792;50.886;6.468;2024-02-26T03:06:15;5.90;99.90
27306;DHT22;14792;50.886;6.468;2024-02-26T03:09:17;5.90;99.90
27306;DHT22;14792;50.886;6.468;2024-02-26T03:12:18;5.90;99.90
27306;DHT22;14792;50.886;6.468;2024-02-26T03:15:20;6.00;99.90
27306;DHT22;14792;50.886;6.468;2024-02-26T03:18:21;5.90;99.90
27306;DHT22;14792;50.886;6.468;2024-02-26T03:21:24;5.90;99.90
27306;DHT22;14792;50.886;6.468;2024-02-26T03:24:25;5.90;99.90
27306;DHT22;14792;50.886;6.468;2024-02-26T03:27:26;5.90;99.90
27306;DHT22;14792;50.886;6.468;2024-02-26T03:30:28;5.90;99.90
27306;DHT22;14792;50.886;6.468;2024-02-26T03:33:29;5.90;99.90
27306;DHT22;14792;50.886;6.468;2024-02-26T03:36:31;6.00;99.90
27306;DHT22;14792;50.886;6.468;2024-02-26T03:39:33;6.00;99.90
27306;DHT22;14792;50.886;6.468;2024-02-26T03:42:34;6.00;99.90
27306;DHT22;14792;50.886;6.468;2024-02-26T03:45:36;6.00;99.90
27306;DHT22;14792;50.886;6.468;2024-02-26T03:48:37;6.00;99.90
27306;DHT22;14792;50.886;6.468;2024-02-26T03:51:39;6.00;99.90
27306;DHT22;14792;50.886;6.468;2024-02-26T03:54:40;6.00;99.90
27306;DHT22;14792;50.886;6.468;2024-02-26T03:57:42;6.00;99.90
27306;DHT22;14792;50.886;6.468;2024-02-26T04:00:44;6.00;99.90
27306;DHT22;14792;50.886;6.468;2024-02-26T04:03:45;6.00;99.90
27306;DHT22;14792;50.886;6.468;2024-02-26T04:06:47;6.00;99.90
27306;DHT22;14792;50.886;6.468;2024-02-26T04:09:48;6.00;99.90
27306;DHT22;14792;50.886;6.468;2024-02-26T04:12:50;6.00;99.90
27306;DHT22;14792;50.886;6.468;2024-02-26T04:15:52;6.00;99.90
27306;DHT22;14792;50.886;6.468;2024-02-26T04:18:53;6.00;99.90
27306;DHT22;14792;50.886;6.468;2024-02-26T04:21:55;6.00;99.90
27306;DHT22;14792;50.886;6.468;2024-02-26T04:24:56;6.00;99.90
27306;DHT22;14792;50.886;6.468;2024-02-26T04:27:58;6.00;99.90
27306;DHT22;14792;50.886;6.468;2024-02-26T04:30:59;6.00;99.90
27306;DHT22;14792;50.886;6.468;2024-02-26T04:34:01;6.00;99.90
27306;DHT22;14792;50.886;6.468;2024-02-26T04:37:03;6.00;99.90
27306;DHT22;14792;50.886;6.468;2024-02-26T04:40:04;6.00;99.90
27306;DHT22;14792;50.886;6.468;2024-02-26T04:43:06;6.00;99.90
27306;DHT22;14792;50.886;6.468;2024-02-26T04:46:08;6.00;99.90
27306;DHT22;14792;50.886;6.468;2024-02-26T04:49:09;6.00;99.90
27306;DHT22;14792;50.886;6.468;2024-02-26T04:52:11;6.00;99.90
27306;DHT22;14792;50.886;6.468;2024-02-26T04:55:12;6.00;99.90
27306;DHT22;14792;50.886;6.468;2024-02-26T04:58:14;6.00;99.90
27306;DHT22;14792;50.886;6.468;2024-02-26T05:01:15;6.00;99.90
27306;DHT22;14792;50.886;6.468;2024-02-26T05:04:17;6.00;99.90
27306;DHT22;14792;50.886;6.468;2024-02-26T05:07:19;6.00;99.90
27306;DHT22;14792;50.886;6.468;2024-02-26T05:10:20;6.00;99.90
27306;DHT22;14792;50.886;6.468;2024-02-26T05:13:22;6.00;99.90
27306;DHT22;14792;50.886;6.468;2024-02-26T05:16:23;6.00;99.90
27306;DHT22;14792;50.886;6.468;2024-02-26T05:19:25;6.00;99.90
27306;DHT22;14792;50.886;6.468;2024-02-26T05:22:27;6.00;99.90
27306;DHT22;14792;50.886;6.468;2024-02-26T05:25:28;6.00;99.90
27306;DHT22;14792;50.886;6.468;2024-02-26T05:28:30;6.00;99.90
27306;DHT22;14792;50.886;6.468;2024-02-26T05:31:31;6.00;99.90
27306;DHT22;14792;50.886;6.468;2024-02-26T05:34:33;6.00;99.90
27306;DHT22;14792;50.886;6.468;2024-02-26T05:37:34;6.00;99.90
27306;DHT22;14792;50.886;6.468;2024-02-26T05:40:36;6.00;99.90
27306;DHT22;14792;50.886;6.468;2024-02-26T05:43:38;6.00;99.90
27306;DHT22;14792;50.886;6.468;2024-02-26T05:46:39;6.00;99.90
27306;DHT22;14792;50.886;6.468;2024-02-26T05:49:41;6.00;99.90
27306;DHT22;14792;50.886;6.468;2024-02-26T05:52:42;6.00;99.90
27306;DHT22;14792;50.886;6.468;2024-02-26T05:55:44;6.00;99.90
27306;DHT22;14792;50.886;6.468;2024-02-26T05:58:46;6.00;99.90
27306;DHT22;14792;50.886;6.468;2024-02-26T06:01:47;6.00;99.90
27306;DHT22;14792;50.886;6.468;2024-02-26T06:04:49;6.00;99.90
27306;DHT22;14792;50.886;6.468;2024-02-26T06:07:50;6.00;99.90
27306;DHT22;14792;50.886;6.468;2024-02-26T06:10:52;6.00;99.90
27306;DHT22;14792;50.886;6.468;2024-02-26T06:13:53;6.00;99.90
27306;DHT22;14792;50.886;6.468;2024-02-26T06:16:55;5.90;99.90
27306;DHT22;14792;50.886;6.468;2024-02-26T06:19:57;6.00;99.90
27306;DHT22;14792;50.886;6.468;2024-02-26T06:22:58;6.00;99.90
27306;DHT22;14792;50.886;6.468;2024-02-26T06:26:00;6.00;99.90
27306;DHT22;14792;50.886;6.468;2024-02-26T06:29:01;6.00;99.90
27306;DHT22;14792;50.886;6.468;2024-02-26T06:32:03;6.00;99.90
27306;DHT22;14792;50.886;6.468;2024-02-26T06:35:05;6.00;99.90
27306;DHT22;14792;50.886;6.468;2024-02-26T06:38:06;6.00;99.90
27306;DHT22;14792;50.886;6.468;2024-02-26T06:41:08;6.00;99.90
27306;DHT22;14792;50.886;6.468;2024-02-26T06:44:09;6.00;99.90
27306;DHT22;14792;50.886;6.468;2024-02-26T06:47:11;6.00;99.90
27306;DHT22;14792;50.886;6.468;2024-02-26T06:50:13;6.00;99.90
27306;DHT22;14792;50.886;6.468;2024-02-26T06:53:14;6.00;99.90
27306;DHT22;14792;50.886;6.468;2024-02-26T06:56:16;6.00;99.90
27306;DHT22;14792;50.886;6.468;2024-02-26T06:59:17;6.00;99.90
27306;DHT22;14792;50.886;6.468;2024-02-26T07:02:19;6.00;99.90
27306;DHT22;14792;50.886;6.468;2024-02-26T07:05:20;6.00;99.90
27306;DHT22;14792;50.886;6.468;2024-02-26T07:08:22;6.00;99.90
27306;DHT22;14792;50.886;6.468;2024-02-26T07:11:24;6.00;99.90
27306;DHT22;14792;50.886;6.468;2024-02-26T07:14:25;6.00;99.90
27306;DHT22;14792;50.886;6.468;2024-02-26T07:17:27;6.00;99.90
27306;DHT22;14792;50.886;6.468;2024-02-26T07:20:29;6.00;99.90
27306;DHT22;14792;50.886;6.468;2024-02-26T07:23:30;6.00;99.90
27306;DHT22;14792;50.886;6.468;2024-02-26T07:26:31;6.00;99.90
27306;DHT22;14792;50.886;6.468;2024-02-26T07:29:33;6.00;99.90
27306;DHT22;14792;50.886;6.468;2024-02-26T07:32:35;6.00;99.90
27306;DHT22;14792;50.886;6.468;2024-02-26T07:35:36;6.00;99.90
27306;DHT22;14792;50.886;6.468;2024-02-26T07:38:38;6.00;99.90
27306;DHT22;14792;50.886;6.468;2024-02-26T07:41:39;6.00;99.90
27306;DHT22;14792;50.886;6.468;2024-02-26T07:44:41;6.00;99.90
27306;DHT22;14792;50.886;6.468;2024-02-26T07:47:43;6.00;99.90
27306;DHT22;14792;50.886;6.468;2024-02-26T07:50:44;6.00;99.90
27306;DHT22;14792;50.886;6.468;2024-02-26T07:53:46;6.10;99.90
27306;DHT22;14792;50.886;6.468;2024-02-26T07:56:47;6.00;99.90
27306;DHT22;14792;50.886;6.468;2024-02-26T07:59:49;6.00;99.90
27306;DHT22;14792;50.886;6.468;2024-02-26T08:02:51;6.00;99.90
27306;DHT22;14792;50.886;6.468;2024-02-26T08:05:52;6.10;99.90
27306;DHT22;14792;50.886;6.468;2024-02-26T08:08:54;6.00;99.90
27306;DHT22;14792;50.886;6.468;2024-02-26T08:11:55;6.00;99.90
27306;DHT22;14792;50.886;6.468;2024-02-26T08:14:57;6.00;99.90
27306;DHT22;14792;50.886;6.468;2024-02-26T08:17:59;6.00;99.90
27306;DHT22;14792;50.886;6.468;2024-02-26T08:21:00;6.10;99.90
27306;DHT22;14792;50.886;6.468;2024-02-26T08:24:02;6.00;99.90
27306;DHT22;14792;50.886;6.468;2024-02-26T08:27:03;6.10;99.90
27306;DHT22;14792;50.886;6.468;2024-02-26T08:30:05;6.10;99.90
27306;DHT22;14792;50.886;6.468;2024-02-26T08:33:07;6.10;99.90
27306;DHT22;14792;50.886;6.468;2024-02-26T08:36:08;6.10;99.90
27306;DHT22;14792;50.886;6.468;2024-02-26T08:39:10;6.10;99.90
27306;DHT22;14792;50.886;6.468;2024-02-26T08:42:11;6.10;99.90
27306;DHT22;14792;50.886;6.468;2024-02-26T08:45:13;6.00;99.90
27306;DHT22;14792;50.886;6.468;2024-02-26T08:48:15;6.00;99.90
27306;DHT22;14792;50.886;6.468;2024-02-26T08:51:16;6.10;99.90
27306;DHT22;14792;50.886;6.468;2024-02-26T08:54:18;6.10;99.90
27306;DHT22;14792;50.886;6.468;2024-02-26T08:57:20;6.10;99.90
27306;DHT22;14792;50.886;6.468;2024-02-26T09:00:21;6.10;99.90
27306;DHT22;14792;50.886;6.468;2024-02-26T09:03:23;6.10;99.90
27306;DHT22;14792;50.886;6.468;2024-02-26T09:06:24;6.10;99.90
27306;DHT22;14792;50.886;6.468;2024-02-26T09:09:26;6.10;99.90
27306;DHT22;14792;50.886;6.468;2024-02-26T09:12:28;6.20;99.90
27306;DHT22;14792;50.886;6.468;2024-02-26T09:15:29;6.20;99.90
27306;DHT22;14792;50.886;6.468;2024-02-26T09:18:31;6.20;99.90
27306;DHT22;14792;50.886;6.468;2024-02-26T09:21:32;6.20;99.90
27306;DHT22;14792;50.886;6.468;2024-02-26T09:24:34;6.20;99.90
27306;DHT22;14792;50.886;6.468;2024-02-26T09:27:35;6.20;99.90
27306;DHT22;14792;50.886;6.468;2024-02-26T09:30:37;6.30;99.90
27306;DHT22;14792;50.886;6.468;2024-02-26T09:33:39;6.20;99.90
27306;DHT22;14792;50.886;6.468;2024-02-26T09:36:40;6.30;99.90
27306;DHT22;14792;50.886;6.468;2024-02-26T09:39:42;6.30;99.90
27306;DHT22;14792;50.886;6.468;2024-02-26T09:42:45;6.30;99.90
27306;DHT22;14792;50.886;6.468;2024-02-26T09:45:47;6.30;99.90
27306;DHT22;14792;50.886;6.468;2024-02-26T09:48:48;6.30;99.90
27306;DHT22;14792;50.886;6.468;2024-02-26T09:51:49;6.30;99.90
27306;DHT22;14792;50.886;6.468;2024-02-26T09:54:51;6.30;99.90
27306;DHT22;14792;50.886;6.468;2024-02-26T09:57:53;6.30;99.90
27306;DHT22;14792;50.886;6.468;2024-02-26T10:00:56;6.30;99.90
27306;DHT22;14792;50.886;6.468;2024-02-26T10:03:56;6.30;99.90
27306;DHT22;14792;50.886;6.468;2024-02-26T10:06:57;6.30;99.90
27306;DHT22;14792;50.886;6.468;2024-02-26T10:09:59;6.40;99.90
27306;DHT22;14792;50.886;6.468;2024-02-26T10:13:01;6.40;99.90
27306;DHT22;14792;50.886;6.468;2024-02-26T10:16:02;6.50;99.90
27306;DHT22;14792;50.886;6.468;2024-02-26T10:19:04;6.50;99.90
27306;DHT22;14792;50.886;6.468;2024-02-26T10:22:05;6.60;99.90
27306;DHT22;14792;50.886;6.468;2024-02-26T10:25:07;6.50;99.90
27306;DHT22;14792;50.886;6.468;2024-02-26T10:28:09;6.50;99.90
27306;DHT22;14792;50.886;6.468;2024-02-26T10:31:10;6.50;99.90
27306;DHT22;14792;50.886;6.468;2024-02-26T10:34:12;6.50;99.90
27306;DHT22;14792;50.886;6.468;2024-02-26T10:37:13;6.50;99.90
27306;DHT22;14792;50.886;6.468;2024-02-26T10:40:15;6.60;99.90
27306;DHT22;14792;50.886;6.468;2024-02-26T10:46:30;6.60;99.90
27306;DHT22;14792;50.886;6.468;2024-02-26T10:49:32;6.60;99.90
27306;DHT22;14792;50.886;6.468;2024-02-26T10:52:34;6.60;99.90
27306;DHT22;14792;50.886;6.468;2024-02-26T10:55:35;6.60;99.90
27306;DHT22;14792;50.886;6.468;2024-02-26T10:58:36;6.70;99.90
27306;DHT22;14792;50.886;6.468;2024-02-26T11:01:38;6.70;99.90
27306;DHT22;14792;50.886;6.468;2024-02-26T11:04:39;6.70;99.90
27306;DHT22;14792;50.886;6.468;2024-02-26T11:07:41;6.70;99.90
27306;DHT22;14792;50.886;6.468;2024-02-26T11:10:46;6.70;99.90
27306;DHT22;14792;50.886;6.468;2024-02-26T11:13:48;6.80;99.90
27306;DHT22;14792;50.886;6.468;2024-02-26T11:16:48;6.80;99.90
27306;DHT22;14792;50.886;6.468;2024-02-26T11:19:50;6.70;99.90
27306;DHT22;14792;50.886;6.468;2024-02-26T11:22:51;6.70;99.90
27306;DHT22;14792;50.886;6.468;2024-02-26T11:25:53;6.70;99.90
27306;DHT22;14792;50.886;6.468;2024-02-26T11:28:54;6.60;99.90
27306;DHT22;14792;50.886;6.468;2024-02-26T11:31:56;6.70;99.90
27306;DHT22;14792;50.886;6.468;2024-02-26T11:35:00;6.70;99.90
27306;DHT22;14792;50.886;6.468;2024-02-26T11:38:02;6.70;99.90
27306;DHT22;14792;50.886;6.468;2024-02-26T11:41:06;6.70;99.90
27306;DHT22;14792;50.886;6.468;2024-02-26T11:44:08;6.80;99.90
27306;DHT22;14792;50.886;6.468;2024-02-26T11:47:13;6.70;99.90
27306;DHT22;14792;50.886;6.468;2024-02-26T11:50:36;6.70;99.90
27306;DHT22;14792;50.886;6.468;2024-02-26T11:53:38;6.70;99.90
27306;DHT22;14792;50.886;6.468;2024-02-26T11:56:40;6.70;99.90
27306;DHT22;14792;50.886;6.468;2024-02-26T11:59:40;6.60;99.90
27306;DHT22;14792;50.886;6.468;2024-02-26T12:02:48;6.60;99.90
27306;DHT22;14792;50.886;6.468;2024-02-26T12:05:49;6.70;99.90
27306;DHT22;14792;50.886;6.468;2024-02-26T12:08:50;6.70;99.90
27306;DHT22;14792;50.886;6.468;2024-02-26T12:11:52;6.70;99.90
27306;DHT22;14792;50.886;6.468;2024-02-26T12:14:55;6.70;99.90
27306;DHT22;14792;50.886;6.468;2024-02-26T12:17:55;6.70;99.90
27306;DHT22;14792;50.886;6.468;2024-02-26T12:21:03;6.70;99.90
27306;DHT22;14792;50.886;6.468;2024-02-26T12:24:11;6.70;99.90
27306;DHT22;14792;50.886;6.468;2024-02-26T12:27:08;6.70;99.90
27306;DHT22;14792;50.886;6.468;2024-02-26T12:30:10;6.80;99.90
27306;DHT22;14792;50.886;6.468;2024-02-26T12:33:12;6.80;99.90
27306;DHT22;14792;50.886;6.468;2024-02-26T12:36:13;6.80;99.90
27306;DHT22;14792;50.886;6.468;2024-02-26T12:39:15;6.80;99.90
27306;DHT22;14792;50.886;6.468;2024-02-26T12:42:16;6.80;99.90
27306;DHT22;14792;50.886;6.468;2024-02-26T12:45:18;6.80;99.90
27306;DHT22;14792;50.886;6.468;2024-02-26T12:48:19;6.80;99.90
27306;DHT22;14792;50.886;6.468;2024-02-26T12:51:21;6.80;99.90
27306;DHT22;14792;50.886;6.468;2024-02-26T12:54:23;6.80;99.90
27306;DHT22;14792;50.886;6.468;2024-02-26T12:57:24;6.80;99.90
27306;DHT22;14792;50.886;6.468;2024-02-26T13:00:26;6.80;99.90
27306;DHT22;14792;50.886;6.468;2024-02-26T13:03:27;6.80;99.90
27306;DHT22;14792;50.886;6.468;2024-02-26T13:06:29;6.90;99.90
27306;DHT22;14792;50.886;6.468;2024-02-26T13:09:34;6.80;99.90
27306;DHT22;14792;50.886;6.468;2024-02-26T13:12:48;6.80;99.90
27306;DHT22;14792;50.886;6.468;2024-02-26T13:15:39;6.80;99.90
27306;DHT22;14792;50.886;6.468;2024-02-26T13:18:41;6.80;99.90
27306;DHT22;14792;50.886;6.468;2024-02-26T13:21:43;6.90;99.90
27306;DHT22;14792;50.886;6.468;2024-02-26T13:24:45;6.90;99.90
27306;DHT22;14792;50.886;6.468;2024-02-26T13:27:46;6.90;99.90
27306;DHT22;14792;50.886;6.468;2024-02-26T13:30:51;7.00;99.90
27306;DHT22;14792;50.886;6.468;2024-02-26T13:33:52;6.90;99.90
27306;DHT22;14792;50.886;6.468;2024-02-26T13:36:54;7.00;99.90
27306;DHT22;14792;50.886;6.468;2024-02-26T13:39:55;7.00;99.90
27306;DHT22;14792;50.886;6.468;2024-02-26T13:42:57;7.00;99.90
27306;DHT22;14792;50.886;6.468;2024-02-26T13:45:59;7.00;99.90
27306;DHT22;14792;50.886;6.468;2024-02-26T13:49:00;7.00;99.90
27306;DHT22;14792;50.886;6.468;2024-02-26T13:52:02;7.10;99.90
27306;DHT22;14792;50.886;6.468;2024-02-26T13:55:03;7.10;99.90
27306;DHT22;14792;50.886;6.468;2024-02-26T13:58:05;7.10;99.90
27306;DHT22;14792;50.886;6.468;2024-02-26T14:01:07;7.00;99.90
27306;DHT22;14792;50.886;6.468;2024-02-26T14:04:08;7.00;99.90
27306;DHT22;14792;50.886;6.468;2024-02-26T14:07:10;7.00;99.90
27306;DHT22;14792;50.886;6.468;2024-02-26T14:10:11;7.00;99.90
27306;DHT22;14792;50.886;6.468;2024-02-26T14:13:13;7.00;99.90
27306;DHT22;14792;50.886;6.468;2024-02-26T14:16:15;7.00;99.90
27306;DHT22;14792;50.886;6.468;2024-02-26T14:19:16;7.00;99.90
27306;DHT22;14792;50.886;6.468;2024-02-26T14:22:18;7.00;99.90
27306;DHT22;14792;50.886;6.468;2024-02-26T14:25:20;7.00;99.90
27306;DHT22;14792;50.886;6.468;2024-02-26T14:28:21;7.00;99.90
27306;DHT22;14792;50.886;6.468;2024-02-26T14:31:22;7.00;99.90
27306;DHT22;14792;50.886;6.468;2024-02-26T14:34:24;7.00;99.90
27306;DHT22;14792;50.886;6.468;2024-02-26T14:37:26;7.00;99.90
27306;DHT22;14792;50.886;6.468;2024-02-26T14:40:27;7.10;99.90
27306;DHT22;14792;50.886;6.468;2024-02-26T14:43:29;7.00;99.90
27306;DHT22;14792;50.886;6.468;2024-02-26T14:46:30;7.00;99.90
27306;DHT22;14792;50.886;6.468;2024-02-26T14:49:32;7.10;99.90
27306;DHT22;14792;50.886;6.468;2024-02-26T14:52:34;7.00;99.90
27306;DHT22;14792;50.886;6.468;2024-02-26T14:55:35;7.00;99.90
27306;DHT22;14792;50.886;6.468;2024-02-26T14:58:37;7.00;99.90
27306;DHT22;14792;50.886;6.468;2024-02-26T15:01:38;7.00;99.90
27306;DHT22;14792;50.886;6.468;2024-02-26T15:04:40;7.00;99.90
27306;DHT22;14792;50.886;6.468;2024-02-26T15:07:42;7.00;99.90
27306;DHT22;14792;50.886;6.468;2024-02-26T15:10:43;7.00;99.90
27306;DHT22;14792;50.886;6.468;2024-02-26T15:13:45;7.00;99.90
27306;DHT22;14792;50.886;6.468;2024-02-26T15:16:46;7.10;99.90
27306;DHT22;14792;50.886;6.468;2024-02-26T15:19:48;7.00;99.90
27306;DHT22;14792;50.886;6.468;2024-02-26T15:22:49;7.00;99.90
27306;DHT22;14792;50.886;6.468;2024-02-26T15:25:51;7.00;99.90
27306;DHT22;14792;50.886;6.468;2024-02-26T15:28:53;7.10;99.90
27306;DHT22;14792;50.886;6.468;2024-02-26T15:31:54;7.00;99.90
27306;DHT22;14792;50.886;6.468;2024-02-26T15:34:56;7.00;99.90
27306;DHT22;14792;50.886;6.468;2024-02-26T15:37:57;7.10;99.90
27306;DHT22;14792;50.886;6.468;2024-02-26T15:40:59;7.10;99.90
27306;DHT22;14792;50.886;6.468;2024-02-26T15:44:01;7.10;99.90
27306;DHT22;14792;50.886;6.468;2024-02-26T15:47:02;7.10;99.90
27306;DHT22;14792;50.886;6.468;2024-02-26T15:50:04;7.10;99.90
27306;DHT22;14792;50.886;6.468;2024-02-26T15:53:05;7.10;99.90
27306;DHT22;14792;50.886;6.468;2024-02-26T15:56:07;7.10;99.90
27306;DHT22;14792;50.886;6.468;2024-02-26T15:59:09;7.20;99.90
27306;DHT22;14792;50.886;6.468;2024-02-26T16:02:10;7.10;99.90
27306;DHT22;14792;50.886;6.468;2024-02-26T16:05:12;7.20;99.90
27306;DHT22;14792;50.886;6.468;2024-02-26T16:08:17;7.20;99.90
27306;DHT22;14792;50.886;6.468;2024-02-26T16:11:15;6.90;99.90
27306;DHT22;14792;50.886;6.468;2024-02-26T16:14:50;7.10;99.90
27306;DHT22;14792;50.886;6.468;2024-02-26T16:17:51;7.00;99.90
27306;DHT22;14792;50.886;6.468;2024-02-26T16:20:53;7.00;99.90
27306;DHT22;14792;50.886;6.468;2024-02-26T16:23:55;6.90;99.90
27306;DHT22;14792;50.886;6.468;2024-02-26T16:26:56;6.90;99.90
27306;DHT22;14792;50.886;6.468;2024-02-26T16:29:58;6.80;99.90
27306;DHT22;14792;50.886;6.468;2024-02-26T16:32:59;6.80;99.90
27306;DHT22;14792;50.886;6.468;2024-02-26T16:36:01;6.80;99.90
27306;DHT22;14792;50.886;6.468;2024-02-26T16:39:03;6.70;99.90
27306;DHT22;14792;50.886;6.468;2024-02-26T16:42:04;6.70;99.90
27306;DHT22;14792;50.886;6.468;2024-02-26T16:45:06;6.70;99.90
27306;DHT22;14792;50.886;6.468;2024-02-26T16:48:07;6.70;99.90
27306;DHT22;14792;50.886;6.468;2024-02-26T16:51:09;6.70;99.90
27306;DHT22;14792;50.886;6.468;2024-02-26T16:54:10;6.70;99.90
27306;DHT22;14792;50.886;6.468;2024-02-26T16:57:12;6.60;99.90
27306;DHT22;14792;50.886;6.468;2024-02-26T17:00:14;6.70;99.90
27306;DHT22;14792;50.886;6.468;2024-02-26T17:03:15;6.60;99.90
27306;DHT22;14792;50.886;6.468;2024-02-26T17:06:17;6.60;99.90
27306;DHT22;14792;50.886;6.468;2024-02-26T17:09:19;6.60;99.90
27306;DHT22;14792;50.886;6.468;2024-02-26T17:12:20;6.50;99.90
27306;DHT22;14792;50.886;6.468;2024-02-26T17:15:22;6.50;99.90
27306;DHT22;14792;50.886;6.468;2024-02-26T17:18:23;6.50;99.90
27306;DHT22;14792;50.886;6.468;2024-02-26T17:21:25;6.50;99.90
27306;DHT22;14792;50.886;6.468;2024-02-26T17:24:26;6.60;99.90
27306;DHT22;14792;50.886;6.468;2024-02-26T17:27:28;6.50;99.90
27306;DHT22;14792;50.886;6.468;2024-02-26T17:30:30;6.50;99.90
27306;DHT22;14792;50.886;6.468;2024-02-26T17:33:34;6.40;99.90
27306;DHT22;14792;50.886;6.468;2024-02-26T17:36:33;6.40;99.90
27306;DHT22;14792;50.886;6.468;2024-02-26T17:39:34;6.40;99.90
27306;DHT22;14792;50.886;6.468;2024-02-26T17:42:36;6.40;99.90
27306;DHT22;14792;50.886;6.468;2024-02-26T17:45:38;6.40;99.90
27306;DHT22;14792;50.886;6.468;2024-02-26T17:48:39;6.40;99.90
27306;DHT22;14792;50.886;6.468;2024-02-26T17:51:41;6.40;99.90
27306;DHT22;14792;50.886;6.468;2024-02-26T17:54:46;6.40;99.90
27306;DHT22;14792;50.886;6.468;2024-02-26T17:57:47;6.40;99.90
27306;DHT22;14792;50.886;6.468;2024-02-26T18:00:48;6.40;99.90
27306;DHT22;14792;50.886;6.468;2024-02-26T18:03:50;6.40;99.90
27306;DHT22;14792;50.886;6.468;2024-02-26T18:06:51;6.40;99.90
27306;DHT22;14792;50.886;6.468;2024-02-26T18:09:53;6.40;99.90
27306;DHT22;14792;50.886;6.468;2024-02-26T18:12:54;6.40;99.90
27306;DHT22;14792;50.886;6.468;2024-02-26T18:15:56;6.40;99.90
27306;DHT22;14792;50.886;6.468;2024-02-26T18:18:58;6.40;99.90
27306;DHT22;14792;50.886;6.468;2024-02-26T18:21:59;6.40;99.90
27306;DHT22;14792;50.886;6.468;2024-02-26T18:25:01;6.40;99.90
27306;DHT22;14792;50.886;6.468;2024-02-26T18:28:02;6.40;99.90
27306;DHT22;14792;50.886;6.468;2024-02-26T18:31:07;6.40;99.90
27306;DHT22;14792;50.886;6.468;2024-02-26T18:34:06;6.40;99.90
27306;DHT22;14792;50.886;6.468;2024-02-26T18:37:07;6.40;99.90
27306;DHT22;14792;50.886;6.468;2024-02-26T18:40:09;6.40;99.90
27306;DHT22;14792;50.886;6.468;2024-02-26T18:43:10;6.40;99.90
27306;DHT22;14792;50.886;6.468;2024-02-26T18:46:12;6.40;99.90
27306;DHT22;14792;50.886;6.468;2024-02-26T18:49:14;6.50;99.90
27306;DHT22;14792;50.886;6.468;2024-02-26T18:52:18;6.40;99.90
27306;DHT22;14792;50.886;6.468;2024-02-26T18:55:17;6.40;99.90
27306;DHT22;14792;50.886;6.468;2024-02-26T18:58:19;6.40;99.90
27306;DHT22;14792;50.886;6.468;2024-02-26T19:01:20;6.40;99.90
27306;DHT22;14792;50.886;6.468;2024-02-26T19:04:22;6.40;99.90
27306;DHT22;14792;50.886;6.468;2024-02-26T19:07:23;6.40;99.90
27306;DHT22;14792;50.886;6.468;2024-02-26T19:10:25;6.50;99.90
27306;DHT22;14792;50.886;6.468;2024-02-26T19:13:27;6.40;99.90
27306;DHT22;14792;50.886;6.468;2024-02-26T19:16:28;6.40;99.90
27306;DHT22;14792;50.886;6.468;2024-02-26T19:19:30;6.40;99.90
27306;DHT22;14792;50.886;6.468;2024-02-26T19:22:31;6.40;99.90
27306;DHT22;14792;50.886;6.468;2024-02-26T19:25:33;6.50;99.90
27306;DHT22;14792;50.886;6.468;2024-02-26T19:28:34;6.50;99.90